Time;durP1;ratioP1;P1;durP2;ratioP2;P2;SDS_P1;SDS_P2;PMS_P1;PMS_P2;Temp;Humidity;BMP_temperature;BMP_pressure;BME280_temperature;BME280_humidity;BME280_pressure;Samples;Min_cycle;Max_cycle;Signal;HPM_P1;HPM_P2
2021/12/24 00:00:41;;;;;;;13.68;9.00;;;;;;;3.15;74.34;98692.81;4952993;28;20086;-61
2021/12/24 00:03:07;;;;;;;16.02;10.50;;;;;;;3.19;75.11;98684.00;4944442;28;20050;-61
2021/12/24 00:05:33;;;;;;;15.00;9.35;;;;;;;3.21;74.84;98683.91;4947967;28;20031;-63
2021/12/24 00:07:59;;;;;;;15.15;9.40;;;;;;;3.15;74.18;98671.44;4965671;28;20145;-62
2021/12/24 00:10:26;;;;;;;13.98;9.93;;;;;;;3.20;74.60;98683.09;4966278;28;20085;-62
2021/12/24 00:13:01;;;;;;;14.10;9.38;;;;;;;3.25;74.10;98669.97;4954882;28;20133;-61
2021/12/24 00:35:08;;;;;;;13.48;9.43;;;;;;;3.22;74.00;98657.31;4956887;28;20041;-62
2021/12/24 00:36:44;;;;;;;13.25;8.80;;;;;;;2.99;75.07;98613.31;4965236;28;20781;-62
2021/12/24 00:39:10;;;;;;;14.23;8.98;;;;;;;3.15;75.53;98643.19;4956194;28;20309;-61
2021/12/24 00:41:35;;;;;;;11.93;7.97;;;;;;;3.07;75.28;98646.25;4950205;28;20027;-64
2021/12/24 00:44:01;;;;;;;14.13;8.80;;;;;;;3.08;74.64;98637.59;4940764;28;20037;-61
2021/12/24 00:46:26;;;;;;;14.55;9.30;;;;;;;3.01;75.76;98644.03;4974006;28;20573;-62
2021/12/24 00:48:53;;;;;;;13.50;9.30;;;;;;;3.09;75.72;98646.97;4966607;28;20031;-63
2021/12/24 00:51:29;;;;;;;14.70;8.95;;;;;;;3.03;75.75;98644.78;4954761;28;20034;-63
2021/12/24 00:56:20;;;;;;;15.45;9.38;;;;;;;2.88;76.00;98633.72;4960771;28;20387;-63
2021/12/24 00:58:47;;;;;;;14.02;9.43;;;;;;;2.86;75.87;98610.69;4941855;28;20054;-62
2021/12/24 01:01:14;;;;;;;13.77;9.15;;;;;;;2.95;75.22;98622.13;4969946;28;20039;-63
2021/12/24 01:03:40;;;;;;;12.88;8.20;;;;;;;2.97;75.64;98620.28;4971555;28;20066;-63
2021/12/24 01:06:05;;;;;;;13.52;8.88;;;;;;;3.00;75.05;98619.28;4967530;28;20114;-61
2021/12/24 01:08:31;;;;;;;14.95;9.02;;;;;;;2.95;75.14;98609.28;4956796;28;20034;-63
2021/12/24 01:10:59;;;;;;;12.23;7.30;;;;;;;3.00;74.66;98603.88;4942421;28;20741;-64
2021/12/24 01:13:26;;;;;;;13.20;8.02;;;;;;;2.52;74.83;98541.84;4953147;28;20077;-62
2021/12/24 01:16:03;;;;;;;13.35;8.50;;;;;;;2.93;74.56;98606.00;4957881;28;20486;-62
2021/12/24 01:19:00;;;;;;;11.93;7.85;;;;;;;3.00;74.59;98620.13;4953334;28;20078;-61
2021/12/24 01:23:49;;;;;;;14.95;8.63;;;;;;;3.06;74.33;98618.91;4954381;28;20138;-63
2021/12/24 01:26:23;;;;;;;13.27;7.85;;;;;;;2.76;74.30;98558.28;4960222;28;20023;-62
2021/12/24 01:45:00;;;;;;;12.60;7.80;;;;;;;3.24;72.55;98594.59;4959864;28;20078;-62
2021/12/24 01:47:26;;;;;;;13.15;7.90;;;;;;;3.01;73.60;98559.28;4943145;28;20038;-61
2021/12/24 01:49:52;;;;;;;10.80;7.22;;;;;;;3.19;73.39;98590.69;4962585;28;20027;-62
2021/12/24 01:52:17;;;;;;;12.77;8.38;;;;;;;3.34;73.31;98607.69;4975148;28;20041;-62
2021/12/24 01:54:43;;;;;;;12.93;7.78;;;;;;;3.39;71.71;98604.81;4972709;28;20038;-61
2021/12/24 01:57:11;;;;;;;10.80;6.95;;;;;;;3.49;71.10;98576.75;4958200;28;20039;-63
2021/12/24 01:59:36;;;;;;;11.00;6.75;;;;;;;3.47;71.96;98594.88;4939334;28;20039;-63
2021/12/24 02:02:02;;;;;;;13.60;7.20;;;;;;;3.41;71.89;98583.25;4939445;28;20518;-62
2021/12/24 02:04:28;;;;;;;13.00;7.82;;;;;;;3.47;72.22;98597.44;4953284;28;20769;-61
2021/12/24 02:06:53;;;;;;;12.13;7.35;;;;;;;3.23;71.97;98546.72;4961619;28;20769;-62
2021/12/24 02:09:19;;;;;;;11.60;7.03;;;;;;;3.40;72.01;98586.72;4962190;28;20171;-63
2021/12/24 02:11:45;;;;;;;11.52;7.55;;;;;;;3.42;72.40;98590.00;4957699;28;20161;-61
2021/12/24 02:14:15;;;;;;;11.10;6.47;;;;;;;3.50;71.50;98579.22;4968854;28;20034;-62
2021/12/24 02:30:04;;;;;;;11.73;7.13;;;;;;;3.44;72.34;98571.94;4973308;28;20334;-62
2021/12/24 02:32:30;;;;;;;11.40;7.13;;;;;;;3.40;72.49;98555.88;4960114;28;20042;-63
2021/12/24 02:34:55;;;;;;;14.85;7.40;;;;;;;3.42;73.22;98556.59;4962392;28;20116;-63
2021/12/24 02:37:20;;;;;;;12.55;6.57;;;;;;;3.43;72.98;98558.25;4954477;28;20031;-61
2021/12/24 02:39:46;;;;;;;10.63;6.03;;;;;;;3.12;72.53;98500.34;4943892;28;20450;-63
2021/12/24 02:42:11;;;;;;;10.85;6.72;;;;;;;2.89;72.09;98455.59;4957566;28;20033;-61
2021/12/24 02:44:37;;;;;;;9.32;5.53;;;;;;;3.54;71.72;98539.56;4959968;28;20073;-61
2021/12/24 02:47:11;;;;;;;11.23;7.05;;;;;;;3.54;71.79;98544.69;4959908;28;20093;-62
2021/12/24 02:55:08;;;;;;;12.55;6.38;;;;;;;3.54;71.50;98524.13;4970877;28;20103;-62
2021/12/24 02:57:35;;;;;;;10.80;6.97;;;;;;;3.60;71.08;98544.28;4957817;28;20031;-63
2021/12/24 03:00:13;;;;;;;10.20;6.95;;;;;;;3.63;71.10;98540.66;4945503;28;20031;-61
2021/12/24 03:02:39;;;;;;;9.98;5.93;;;;;;;3.59;70.51;98534.09;4956359;28;20106;-61
2021/12/24 03:05:06;;;;;;;10.30;5.78;;;;;;;3.64;70.34;98543.13;4957421;28;20035;-62
2021/12/24 03:07:32;;;;;;;10.63;7.15;;;;;;;3.54;70.58;98511.28;4958949;28;20042;-62
2021/12/24 03:09:59;;;;;;;10.70;6.30;;;;;;;3.73;70.37;98530.59;4957988;28;20085;-62
2021/12/24 03:12:25;;;;;;;10.77;5.95;;;;;;;3.73;69.98;98526.28;4957371;28;20031;-61
2021/12/24 03:14:50;;;;;;;9.80;5.55;;;;;;;3.71;70.32;98519.59;4958457;28;20175;-61
2021/12/24 03:17:19;;;;;;;10.18;6.25;;;;;;;3.51;70.65;98485.75;4962774;28;20523;-62
2021/12/24 03:19:45;;;;;;;8.60;5.22;;;;;;;3.70;70.45;98512.81;4951950;28;20494;-63
2021/12/24 03:23:06;;;;;;;9.13;5.68;;;;;;;3.60;70.86;98521.13;4953869;28;20119;-61
2021/12/24 03:24:59;;;;;;;10.03;6.20;;;;;;;3.63;71.77;98528.66;4944009;28;20042;-62
2021/12/24 03:27:25;;;;;;;10.10;6.30;;;;;;;3.62;71.67;98516.72;4959573;28;20345;-62
2021/12/24 03:29:51;;;;;;;10.20;6.07;;;;;;;3.54;71.36;98495.84;4953022;28;20284;-62
2021/12/24 03:32:16;;;;;;;11.45;5.95;;;;;;;3.22;71.30;98449.16;4959490;28;20039;-62
2021/12/24 03:34:42;;;;;;;9.73;5.57;;;;;;;3.56;71.05;98493.16;4961643;28;20034;-63
2021/12/24 03:37:08;;;;;;;8.85;5.47;;;;;;;3.56;70.60;98496.56;4958707;28;20034;-62
2021/12/24 03:39:34;;;;;;;9.95;6.53;;;;;;;3.58;70.67;98501.59;4958942;28;20093;-63
2021/12/24 03:41:59;;;;;;;9.32;6.03;;;;;;;3.41;69.74;98446.16;4961229;28;20381;-62
2021/12/24 03:44:35;;;;;;;9.07;5.60;;;;;;;3.72;68.83;98480.91;4962979;28;20038;-62
2021/12/24 03:47:13;;;;;;;8.98;5.70;;;;;;;3.73;69.51;98479.97;4951994;28;20126;-64
2021/12/24 03:49:53;;;;;;;11.20;6.00;;;;;;;3.44;69.80;98431.34;4955889;28;20031;-64
2021/12/24 03:54:57;;;;;;;9.25;5.32;;;;;;;3.71;69.83;98479.28;4959500;28;20097;-61
2021/12/24 03:57:29;;;;;;;10.00;5.97;;;;;;;3.40;69.78;98421.41;4969739;28;20513;-62
2021/12/24 03:59:57;;;;;;;11.05;5.25;;;;;;;3.77;69.46;98460.03;4955140;28;20038;-63
2021/12/24 04:02:23;;;;;;;10.57;6.28;;;;;;;3.80;69.76;98455.50;4943955;28;20379;-63
2021/12/24 04:04:48;;;;;;;10.88;6.18;;;;;;;3.51;69.24;98406.06;4969165;28;20042;-63
2021/12/24 04:07:14;;;;;;;9.40;5.72;;;;;;;3.54;69.26;98412.72;4955838;28;20494;-64
2021/12/24 04:09:49;;;;;;;10.60;5.50;;;;;;;3.81;69.18;98457.13;4958822;28;20145;-65
2021/12/24 04:12:14;;;;;;;7.88;4.88;;;;;;;3.45;69.29;98391.06;4944944;28;20046;-63
2021/12/24 04:14:40;;;;;;;10.00;4.70;;;;;;;3.79;69.13;98435.84;4959532;28;20035;-64
2021/12/24 04:17:07;;;;;;;9.30;5.38;;;;;;;3.61;69.37;98396.81;4944335;28;20054;-65
2021/12/24 04:24:52;;;;;;;9.88;6.05;;;;;;;3.87;69.60;98427.59;4959560;28;21520;-63
2021/12/24 04:27:28;;;;;;;9.05;5.47;;;;;;;3.85;69.62;98435.44;4962726;28;20106;-63
2021/12/24 04:30:02;;;;;;;9.90;5.40;;;;;;;3.83;70.23;98432.16;4958465;28;20035;-63
2021/12/24 04:32:40;;;;;;;11.35;5.90;;;;;;;3.86;69.87;98428.53;4962000;28;20035;-62
2021/12/24 04:35:18;;;;;;;9.90;5.55;;;;;;;3.90;69.33;98432.53;4941404;28;20052;-62
2021/12/24 05:02:06;;;;;;;8.30;4.55;;;;;;;4.23;66.61;98410.47;4953232;28;20094;-63
2021/12/24 05:04:35;;;;;;;8.75;5.05;;;;;;;4.22;65.84;98412.25;4959570;28;20347;-64
2021/12/24 05:07:25;;;;;;;8.88;5.13;;;;;;;4.33;65.64;98428.69;4952787;28;20033;-62
2021/12/24 05:09:50;;;;;;;7.72;4.70;;;;;;;4.13;66.23;98384.59;4956615;28;20034;-63
2021/12/24 05:12:16;;;;;;;8.90;4.63;;;;;;;4.03;66.54;98365.59;4955606;28;20040;-65
2021/12/24 05:14:41;;;;;;;8.98;4.95;;;;;;;4.24;66.80;98409.56;4956469;28;20035;-64
2021/12/24 05:22:54;;;;;;;7.93;4.72;;;;;;;4.29;65.79;98420.38;4918239;29;20262;-64
2021/12/24 05:25:20;;;;;;;8.07;4.55;;;;;;;4.29;65.75;98409.22;4942160;28;20034;-62
2021/12/24 05:27:45;;;;;;;8.43;4.63;;;;;;;4.37;65.24;98409.50;4970763;28;20418;-65
2021/12/24 05:30:11;;;;;;;7.70;4.40;;;;;;;4.46;65.48;98416.56;4949731;28;20145;-62
2021/12/24 05:32:37;;;;;;;7.65;4.57;;;;;;;4.46;64.83;98401.13;4956996;28;20762;-65
2021/12/24 05:35:03;;;;;;;8.05;4.60;;;;;;;4.13;64.67;98351.13;4930689;28;20042;-63
2021/12/24 05:37:29;;;;;;;8.25;4.47;;;;;;;4.48;65.29;98401.00;4954254;28;20027;-65
2021/12/24 05:39:54;;;;;;;7.57;4.07;;;;;;;4.43;65.54;98401.34;4949228;28;20785;-63
2021/12/24 05:42:22;;;;;;;9.05;4.50;;;;;;;4.16;64.51;98343.22;4953975;28;20027;-63
2021/12/24 05:44:48;;;;;;;6.65;3.65;;;;;;;4.54;64.83;98397.97;4968264;28;20039;-62
2021/12/24 05:47:13;;;;;;;6.88;2.72;;;;;;;4.55;63.98;98405.59;4959288;28;20098;-63
2021/12/24 05:49:40;;;;;;;7.80;4.40;;;;;;;4.46;64.78;98401.13;4958540;28;20031;-62
2021/12/24 05:52:06;;;;;;;10.05;4.75;;;;;;;4.58;64.24;98415.69;4940165;28;20027;-63
2021/12/24 05:54:31;;;;;;;8.48;4.20;;;;;;;4.63;64.06;98418.72;4957138;28;20035;-64
2021/12/24 05:56:57;;;;;;;8.13;4.20;;;;;;;4.59;64.44;98414.75;4953207;28;20034;-62
2021/12/24 05:59:22;;;;;;;8.50;4.50;;;;;;;4.56;64.86;98407.25;4942271;28;20429;-64
2021/12/24 06:01:48;;;;;;;7.38;4.05;;;;;;;4.47;65.49;98389.88;4946413;28;20937;-63
2021/12/24 06:04:13;;;;;;;7.55;4.40;;;;;;;4.56;64.75;98396.13;4961070;28;20034;-62
2021/12/24 06:06:39;;;;;;;8.23;4.57;;;;;;;4.61;65.04;98397.41;4970296;28;20035;-63
2021/12/24 06:09:04;;;;;;;7.97;4.53;;;;;;;4.59;64.74;98401.03;4950422;28;20039;-63
2021/12/24 06:11:30;;;;;;;7.75;4.25;;;;;;;4.30;65.58;98349.09;4956662;28;20035;-64
2021/12/24 06:13:56;;;;;;;7.10;4.10;;;;;;;4.54;65.22;98397.97;4958399;28;20050;-63
2021/12/24 06:16:22;;;;;;;7.65;3.80;;;;;;;4.51;65.68;98390.47;4959000;28;20693;-63
2021/12/24 06:18:47;;;;;;;9.75;4.57;;;;;;;4.28;65.76;98345.81;4953060;28;20032;-63
2021/12/24 06:21:14;;;;;;;9.48;4.20;;;;;;;4.58;65.44;98394.25;4960484;28;20031;-64
2021/12/24 06:23:40;;;;;;;8.20;4.03;;;;;;;4.29;64.93;98345.72;4960201;28;20039;-64
2021/12/24 06:26:07;;;;;;;7.18;4.32;;;;;;;4.53;65.10;98386.06;4959607;28;20564;-64
2021/12/24 06:28:33;;;;;;;7.18;4.13;;;;;;;4.57;65.40;98392.63;4952202;28;20750;-64
2021/12/24 06:30:59;;;;;;;7.65;4.13;;;;;;;4.59;64.54;98386.41;4954384;28;20356;-63
2021/12/24 06:33:25;;;;;;;7.45;4.15;;;;;;;4.61;63.63;98357.97;4949308;28;20382;-65
2021/12/24 06:35:53;;;;;;;7.93;3.80;;;;;;;4.71;63.01;98360.69;4932194;28;20893;-63
2021/12/24 06:38:20;;;;;;;7.35;3.83;;;;;;;4.79;63.09;98372.06;4943965;28;20066;-64
2021/12/24 06:40:45;;;;;;;9.32;3.38;;;;;;;4.93;61.52;98365.09;4955367;28;20038;-65
2021/12/24 06:43:11;;;;;;;9.75;3.80;;;;;;;4.89;61.77;98356.75;4952122;28;20481;-62
2021/12/24 06:45:37;;;;;;;7.57;4.45;;;;;;;4.90;61.98;98371.25;4951552;28;20035;-62
2021/12/24 06:48:04;;;;;;;7.18;3.78;;;;;;;4.88;63.16;98380.88;4956236;28;20031;-63
2021/12/24 06:50:30;;;;;;;6.68;3.70;;;;;;;4.80;63.54;98396.91;4940097;28;20803;-64
2021/12/24 06:52:55;;;;;;;8.40;4.13;;;;;;;4.76;62.76;98382.63;4948746;28;20031;-64
2021/12/24 06:55:21;;;;;;;7.45;3.60;;;;;;;4.79;62.69;98369.50;4960254;28;20027;-63
2021/12/24 06:57:47;;;;;;;7.43;3.95;;;;;;;4.27;62.95;98296.09;4939128;28;20549;-63
2021/12/24 07:00:16;;;;;;;7.45;3.90;;;;;;;4.87;62.25;98393.84;4974118;28;20490;-62
2021/12/24 07:02:42;;;;;;;8.48;3.97;;;;;;;4.85;62.44;98383.66;4957624;28;20129;-64
2021/12/24 07:05:07;;;;;;;7.65;3.58;;;;;;;4.86;62.66;98381.94;4958437;28;20133;-63
2021/12/24 07:07:33;;;;;;;6.80;3.42;;;;;;;4.93;61.86;98378.78;4950408;28;20020;-64
2021/12/24 07:09:58;;;;;;;6.80;3.28;;;;;;;4.90;62.07;98357.56;4952099;28;20073;-64
2021/12/24 07:12:23;;;;;;;6.93;3.63;;;;;;;4.81;62.74;98365.03;4955963;28;20027;-63
2021/12/24 07:14:49;;;;;;;8.40;3.92;;;;;;;4.86;62.54;98367.28;4972071;28;20493;-65
2021/12/24 07:17:15;;;;;;;7.97;3.63;;;;;;;4.84;63.10;98361.44;4940482;28;20026;-63
2021/12/24 07:19:40;;;;;;;7.28;3.83;;;;;;;4.78;63.16;98354.97;4952000;28;20418;-65
2021/12/24 07:22:07;;;;;;;7.88;3.85;;;;;;;4.79;63.06;98351.44;4944282;28;20485;-62
2021/12/24 07:24:34;;;;;;;7.13;3.90;;;;;;;4.74;64.05;98355.31;4942875;28;20026;-63
2021/12/24 07:27:01;;;;;;;9.73;4.07;;;;;;;4.81;63.27;98351.34;4950165;28;20115;-63
2021/12/24 07:29:27;;;;;;;9.85;3.90;;;;;;;4.52;63.08;98300.25;4958974;28;20125;-63
2021/12/24 07:31:52;;;;;;;8.15;3.80;;;;;;;4.82;62.90;98358.16;4956664;28;20625;-63
2021/12/24 07:34:17;;;;;;;8.32;3.75;;;;;;;4.85;62.65;98350.16;4954923;28;20058;-63
2021/12/24 07:36:43;;;;;;;7.90;3.47;;;;;;;4.89;62.71;98343.03;4958180;28;20034;-62
2021/12/24 07:39:08;;;;;;;8.18;3.97;;;;;;;4.48;62.59;98287.72;4953191;28;20034;-63
2021/12/24 07:41:34;;;;;;;7.22;4.18;;;;;;;4.85;62.46;98344.22;4960528;28;20037;-65
2021/12/24 07:44:01;;;;;;;8.52;3.78;;;;;;;4.79;63.48;98335.19;4933260;28;20034;-65
2021/12/24 07:46:34;;;;;;;6.35;3.65;;;;;;;4.80;63.90;98337.66;4952745;28;20027;-63
2021/12/24 07:49:12;;;;;;;6.82;3.60;;;;;;;4.80;64.16;98337.66;4955863;28;20027;-63
2021/12/24 07:54:21;;;;;;;9.93;3.90;;;;;;;4.57;63.67;98274.97;4951818;28;20050;-62
2021/12/24 07:56:46;;;;;;;8.40;4.20;;;;;;;4.89;64.11;98328.41;4949280;28;20034;-63
2021/12/24 07:59:14;;;;;;;6.68;3.38;;;;;;;4.78;63.99;98321.50;4940686;28;20034;-62
2021/12/24 08:01:39;;;;;;;7.82;4.10;;;;;;;4.88;63.85;98323.38;4968465;28;20038;-63
2021/12/24 08:04:06;;;;;;;6.38;3.53;;;;;;;4.87;65.30;98339.75;4951841;28;20038;-62
2021/12/24 08:06:32;;;;;;;7.53;4.07;;;;;;;4.77;65.32;98313.88;4941718;28;20031;-63
2021/12/24 08:08:57;;;;;;;6.22;3.55;;;;;;;4.65;65.96;98300.16;4976747;28;20031;-63
2021/12/24 08:11:23;;;;;;;7.85;3.30;;;;;;;4.87;63.05;98327.69;4967352;28;20038;-63
2021/12/24 08:13:48;;;;;;;6.45;3.65;;;;;;;5.00;62.93;98322.44;4957228;28;20957;-62
2021/12/24 08:16:15;;;;;;;7.25;3.00;;;;;;;5.08;59.76;98308.97;4961245;28;20041;-63
2021/12/24 08:18:43;;;;;;;7.13;3.65;;;;;;;5.22;61.88;98319.06;4955357;28;20079;-64
2021/12/24 08:21:09;;;;;;;7.32;4.00;;;;;;;4.77;63.50;98276.06;4965037;28;20133;-63
2021/12/24 08:23:34;;;;;;;6.50;3.63;;;;;;;5.18;61.26;98320.22;4955090;28;20193;-63
2021/12/24 08:26:00;;;;;;;6.80;3.60;;;;;;;5.12;63.68;98325.84;4957584;28;20073;-64
2021/12/24 08:28:28;;;;;;;7.47;3.90;;;;;;;5.03;63.07;98313.66;4950093;28;20066;-66
2021/12/24 08:30:56;;;;;;;8.43;3.77;;;;;;;5.17;61.93;98316.00;4939987;28;20027;-64
2021/12/24 08:33:21;;;;;;;6.82;3.70;;;;;;;5.24;59.17;98321.50;4954251;28;20085;-62
2021/12/24 08:35:47;;;;;;;8.85;3.90;;;;;;;5.06;62.05;98303.94;4941683;28;20034;-63
2021/12/24 08:38:12;;;;;;;7.55;3.38;;;;;;;5.11;62.72;98319.88;4961862;28;20425;-63
2021/12/24 08:40:38;;;;;;;7.78;4.13;;;;;;;5.18;61.25;98331.34;4973557;28;20631;-65
2021/12/24 08:43:04;;;;;;;8.07;4.95;;;;;;;5.20;59.71;98323.47;4955518;28;20035;-63
2021/12/24 08:45:29;;;;;;;7.40;4.05;;;;;;;4.92;60.48;98281.78;4947782;28;20179;-63
2021/12/24 08:47:55;;;;;;;13.45;5.30;;;;;;;5.19;61.11;98321.88;4952220;28;20093;-63
2021/12/24 08:50:20;;;;;;;8.57;4.20;;;;;;;5.26;59.89;98324.81;4952609;28;20089;-64
2021/12/24 08:52:46;;;;;;;7.35;4.13;;;;;;;5.25;59.17;98302.53;4949395;28;20066;-63
2021/12/24 08:55:16;;;;;;;7.97;4.03;;;;;;;5.36;58.74;98313.63;4939671;28;20089;-62
2021/12/24 08:57:43;;;;;;;6.03;2.97;;;;;;;5.47;58.59;98323.13;4945874;28;20109;-62
2021/12/24 09:00:11;;;;;;;6.90;3.95;;;;;;;5.33;59.13;98313.03;4958095;28;20042;-64
2021/12/24 09:02:37;;;;;;;8.98;3.38;;;;;;;5.39;59.71;98310.81;4964312;28;20397;-63
2021/12/24 09:05:08;;;;;;;7.00;3.80;;;;;;;5.52;58.08;98322.78;4939020;28;20130;-65
2021/12/24 09:07:34;;;;;;;8.00;3.83;;;;;;;5.47;58.36;98314.56;4930705;28;20026;-61
2021/12/24 09:09:59;;;;;;;6.43;3.20;;;;;;;5.53;59.98;98314.06;4941525;28;20042;-62
2021/12/24 09:12:25;;;;;;;6.60;3.30;;;;;;;5.48;58.96;98306.72;4964064;28;20031;-62
2021/12/24 09:14:50;;;;;;;6.50;3.80;;;;;;;5.45;60.36;98312.09;4951862;28;20035;-62
2021/12/24 09:17:16;;;;;;;7.65;3.67;;;;;;;5.41;60.77;98305.56;4953715;28;20731;-61
2021/12/24 09:19:47;;;;;;;7.32;4.03;;;;;;;5.29;60.87;98298.75;4945168;28;21402;-62
2021/12/24 09:22:16;;;;;;;7.13;4.07;;;;;;;5.27;61.53;98308.38;4946297;28;20034;-61
2021/12/24 09:24:43;;;;;;;8.57;3.92;;;;;;;5.26;62.25;98312.72;4954977;28;20039;-62
2021/12/24 09:27:09;;;;;;;7.60;4.80;;;;;;;5.31;61.86;98296.88;4951462;28;20037;-63
2021/12/24 09:29:34;;;;;;;8.68;4.95;;;;;;;5.20;61.20;98282.25;4967193;28;20031;-63
2021/12/24 09:32:00;;;;;;;7.75;3.60;;;;;;;5.32;61.28;98295.97;4961330;28;20022;-63
2021/12/24 09:34:25;;;;;;;7.05;3.67;;;;;;;5.34;61.38;98299.22;4951169;28;20035;-60
2021/12/24 09:36:52;;;;;;;6.60;3.53;;;;;;;5.38;61.77;98310.94;4950519;28;20027;-61
2021/12/24 09:39:17;;;;;;;6.70;3.90;;;;;;;4.85;60.80;98202.53;4962563;28;20486;-61
2021/12/24 09:41:43;;;;;;;8.05;3.78;;;;;;;5.43;60.84;98293.34;4953819;28;20026;-64
2021/12/24 09:44:09;;;;;;;8.80;3.25;;;;;;;5.12;62.13;98239.03;4945513;28;20139;-61
2021/12/24 09:46:36;;;;;;;7.20;3.72;;;;;;;5.20;61.97;98248.72;4967579;28;20401;-61
2021/12/24 09:49:02;;;;;;;6.43;3.03;;;;;;;5.51;58.87;98282.44;4966898;28;20263;-61
2021/12/24 09:51:28;;;;;;;7.40;3.20;;;;;;;5.62;57.71;98299.66;4948298;28;20102;-61
2021/12/24 09:53:55;;;;;;;6.60;3.05;;;;;;;5.61;58.08;98298.03;4947873;28;20497;-61
2021/12/24 09:56:21;;;;;;;6.45;3.17;;;;;;;5.54;58.33;98288.16;4969950;28;20366;-62
2021/12/24 09:58:47;;;;;;;6.57;3.38;;;;;;;5.32;59.64;98257.28;4951309;28;20043;-63
2021/12/24 10:01:36;;;;;;;6.45;3.20;;;;;;;5.56;59.37;98288.06;4952600;28;20054;-64
2021/12/24 10:04:13;;;;;;;8.30;3.83;;;;;;;5.59;59.57;98282.66;4957527;28;20157;-61
2021/12/24 10:06:49;;;;;;;7.43;3.92;;;;;;;5.67;59.42;98282.06;4949542;28;20233;-61
2021/12/24 10:09:16;;;;;;;7.18;3.58;;;;;;;5.78;57.91;98290.56;4955631;28;20033;-64
2021/12/24 10:11:55;;;;;;;7.97;3.63;;;;;;;5.71;60.13;98281.69;4942741;28;20736;-61
2021/12/24 10:14:27;;;;;;;6.60;3.80;;;;;;;5.61;60.92;98270.47;4939388;28;20030;-61
2021/12/24 10:16:54;;;;;;;6.63;3.60;;;;;;;5.62;62.35;98271.28;4950923;28;20466;-62
2021/12/24 10:19:20;;;;;;;6.78;3.33;;;;;;;5.62;61.27;98284.97;4954124;28;20023;-62
2021/12/24 10:21:47;;;;;;;8.57;3.90;;;;;;;5.64;61.58;98277.13;4972108;28;20035;-63
2021/12/24 10:24:17;;;;;;;8.38;4.10;;;;;;;5.30;61.57;98226.47;4942771;28;20110;-62
2021/12/24 10:26:49;;;;;;;6.38;3.55;;;;;;;5.62;61.84;98276.44;4942526;28;20110;-62
2021/12/24 10:29:19;;;;;;;9.18;4.30;;;;;;;5.58;62.31;98268.97;4957136;28;20029;-63
2021/12/24 10:31:49;;;;;;;8.43;4.75;;;;;;;5.56;61.90;98255.34;4948598;28;20073;-62
2021/12/24 10:34:20;;;;;;;10.52;4.75;;;;;;;5.75;62.20;98284.84;4956560;28;20034;-63
2021/12/24 10:37:09;;;;;;;9.40;4.60;;;;;;;5.73;63.11;98279.81;4956650;28;20035;-61
2021/12/24 10:39:46;;;;;;;8.98;4.72;;;;;;;5.57;62.80;98254.41;4950561;28;20035;-62
2021/12/24 10:42:19;;;;;;;8.35;4.72;;;;;;;5.69;61.48;98262.09;4957648;28;20035;-61
2021/12/24 10:44:46;;;;;;;8.27;4.30;;;;;;;5.75;62.04;98261.63;4959121;28;20121;-61
2021/12/24 10:47:15;;;;;;;11.32;5.20;;;;;;;5.81;62.24;98268.06;4940033;28;20042;-61
2021/12/24 10:49:57;;;;;;;12.52;5.57;;;;;;;5.81;63.13;98274.03;4955541;28;20165;-62
2021/12/24 10:54:53;;;;;;;14.80;5.10;;;;;;;5.80;63.44;98256.09;4957409;28;20058;-63
2021/12/24 10:57:23;;;;;;;7.47;4.38;;;;;;;5.83;63.48;98254.09;4967328;28;20038;-61
2021/12/24 10:59:49;;;;;;;8.65;4.75;;;;;;;5.55;62.02;98212.44;4953663;28;20026;-61
2021/12/24 11:02:14;;;;;;;9.75;4.28;;;;;;;5.83;61.93;98233.44;4942204;28;20499;-62
2021/12/24 11:04:40;;;;;;;9.00;4.65;;;;;;;5.93;62.21;98243.84;4950157;28;20033;-62
2021/12/24 11:07:33;;;;;;;8.50;4.70;;;;;;;5.97;61.89;98240.94;4961455;28;20405;-61
2021/12/24 11:10:22;;;;;;;9.30;4.47;;;;;;;5.95;61.63;98239.34;4957990;28;20029;-61
2021/12/24 11:12:54;;;;;;;7.70;4.07;;;;;;;5.83;61.41;98223.13;4962194;28;20105;-61
2021/12/24 11:15:31;;;;;;;7.72;4.35;;;;;;;5.63;61.68;98187.81;4952353;28;20038;-62
2021/12/24 11:18:06;;;;;;;9.00;4.70;;;;;;;5.70;61.90;98204.44;4959584;28;20031;-62
2021/12/24 11:20:32;;;;;;;8.82;4.85;;;;;;;5.85;60.27;98228.97;4955323;28;20027;-61
2021/12/24 11:22:59;;;;;;;9.07;4.35;;;;;;;5.88;60.91;98233.91;4953743;28;20030;-62
2021/12/24 11:25:28;;;;;;;10.50;4.43;;;;;;;5.87;61.58;98228.84;4960261;28;20375;-63
2021/12/24 11:27:54;;;;;;;9.82;4.13;;;;;;;5.85;62.42;98234.13;4970584;28;20035;-62
2021/12/24 11:30:21;;;;;;;9.02;4.50;;;;;;;5.82;62.58;98229.22;4939090;28;20450;-63
2021/12/24 11:32:47;;;;;;;8.75;4.65;;;;;;;5.88;62.62;98226.16;4959643;28;20580;-63
2021/12/24 11:35:13;;;;;;;9.65;4.82;;;;;;;5.74;61.67;98188.56;4939227;28;20019;-63
2021/12/24 11:37:44;;;;;;;7.50;4.80;;;;;;;5.94;62.43;98219.69;4965857;28;20442;-62
2021/12/24 11:40:11;;;;;;;8.70;4.97;;;;;;;5.63;63.29;98182.66;4933002;28;20042;-62
2021/12/24 11:42:39;;;;;;;7.85;4.85;;;;;;;5.23;62.43;98118.81;4954389;28;20907;-62
2021/12/24 11:45:06;;;;;;;8.18;4.60;;;;;;;5.97;62.69;98232.38;4966419;28;20054;-62
2021/12/24 11:47:32;;;;;;;9.00;4.90;;;;;;;5.91;63.17;98214.75;4949935;28;21815;-63
2021/12/24 11:49:57;;;;;;;11.80;5.80;;;;;;;5.87;63.00;98203.88;4948683;28;20043;-63
2021/12/24 11:52:25;;;;;;;11.35;7.32;;;;;;;5.83;63.90;98189.59;4937694;28;20533;-63
2021/12/24 11:54:54;;;;;;;12.73;7.18;;;;;;;5.70;63.74;98137.34;4950740;28;20023;-63
2021/12/24 11:57:21;;;;;;;11.40;7.28;;;;;;;5.88;63.61;98169.38;4962975;28;20050;-63
2021/12/24 11:59:47;;;;;;;14.82;7.20;;;;;;;5.86;63.97;98173.84;4957546;28;20125;-62
2021/12/24 12:02:36;;;;;;;13.10;7.82;;;;;;;5.88;64.12;98153.09;4963774;28;20137;-63
2021/12/24 12:05:15;;;;;;;16.55;7.95;;;;;;;5.80;65.22;98147.72;4948018;28;20645;-62
2021/12/24 12:07:41;;;;;;;14.68;7.70;;;;;;;5.77;64.90;98159.13;4955570;28;20086;-64
2021/12/24 12:10:07;;;;;;;12.35;7.75;;;;;;;5.83;64.36;98171.53;4955866;28;20406;-63
2021/12/24 12:12:38;;;;;;;11.73;7.60;;;;;;;5.78;63.93;98173.66;4953724;28;20402;-63
2021/12/24 12:15:31;;;;;;;14.05;6.97;;;;;;;5.80;63.15;98189.00;4944915;28;20027;-63
2021/12/24 12:17:58;;;;;;;11.27;6.45;;;;;;;5.72;62.69;98194.78;4962067;28;20082;-62
2021/12/24 12:20:48;;;;;;;10.88;5.60;;;;;;;5.76;61.91;98189.25;4953400;28;20027;-63
2021/12/24 12:23:48;;;;;;;10.27;6.10;;;;;;;5.79;62.44;98177.88;4953806;28;20023;-62
2021/12/24 12:26:37;;;;;;;11.32;6.43;;;;;;;5.80;62.65;98171.75;4955481;28;20023;-62
2021/12/24 12:29:37;;;;;;;12.25;6.68;;;;;;;5.71;62.87;98168.19;4954322;28;20121;-63
2021/12/24 12:32:03;;;;;;;11.18;6.93;;;;;;;5.81;63.00;98163.09;4951476;28;20058;-64
2021/12/24 12:34:40;;;;;;;11.75;6.85;;;;;;;5.62;61.56;98137.97;4958749;28;20489;-63
2021/12/24 12:37:18;;;;;;;11.75;6.00;;;;;;;5.72;61.31;98146.59;4957246;28;20041;-62
2021/12/24 12:39:46;;;;;;;13.65;6.90;;;;;;;5.51;60.95;98118.22;4972353;28;20588;-63
2021/12/24 12:42:14;;;;;;;11.48;6.22;;;;;;;5.72;60.16;98138.03;4955418;28;20041;-64
2021/12/24 12:44:45;;;;;;;11.25;6.10;;;;;;;4.98;60.13;98015.09;4951603;28;20023;-60
2021/12/24 12:47:17;;;;;;;9.95;6.03;;;;;;;5.47;60.04;98106.50;4945518;28;20129;-60
2021/12/24 12:49:43;;;;;;;11.18;6.00;;;;;;;5.48;60.43;98115.06;4949375;28;20015;-60
2021/12/24 12:52:20;;;;;;;12.30;5.75;;;;;;;5.64;60.39;98140.41;4949194;28;20027;-59
2021/12/24 12:54:51;;;;;;;10.23;5.95;;;;;;;5.56;60.25;98117.84;4951421;28;20027;-60
2021/12/24 12:57:32;;;;;;;11.23;6.20;;;;;;;5.65;60.32;98149.81;4957071;28;21615;-60
2021/12/24 13:00:07;;;;;;;12.48;6.72;;;;;;;5.77;60.71;98141.88;4952687;28;20020;-60
2021/12/24 13:02:58;;;;;;;11.20;6.35;;;;;;;5.86;60.35;98132.56;4958480;28;20034;-60
2021/12/24 13:05:26;;;;;;;10.13;7.05;;;;;;;5.72;61.25;98128.53;4958111;28;20023;-60
2021/12/24 13:07:53;;;;;;;9.73;6.47;;;;;;;5.71;61.66;98131.22;4950216;28;20033;-60
2021/12/24 13:10:18;;;;;;;13.75;6.82;;;;;;;5.67;62.44;98125.50;4958527;28;20022;-60
2021/12/24 13:12:44;;;;;;;13.35;6.38;;;;;;;5.80;61.44;98121.94;4969381;28;20035;-60
2021/12/24 13:15:16;;;;;;;12.90;7.70;;;;;;;5.43;60.89;98081.91;4952997;28;20074;-60
2021/12/24 13:17:46;;;;;;;10.90;6.80;;;;;;;5.68;60.67;98100.56;4973837;28;20027;-60
2021/12/24 13:20:18;;;;;;;11.15;6.88;;;;;;;5.72;61.18;98101.94;4954881;28;20031;-60
2021/12/24 13:22:44;;;;;;;14.07;7.10;;;;;;;5.46;61.52;98049.88;4950668;28;20055;-60
2021/12/24 13:25:14;;;;;;;12.75;7.47;;;;;;;5.79;61.66;98087.59;4954735;28;20023;-60
2021/12/24 13:27:50;;;;;;;11.45;7.40;;;;;;;5.72;61.79;98086.44;4954869;28;20081;-61